sensor_id;sensor_type;location;lat;lon;timestamp;P1;durP1;ratioP1;P2;durP2;ratioP2
65045;SDS011;54657;52.022;5.534;2023-03-26T00:01:17;9.60;;;1.73;;
65045;SDS011;54657;52.022;5.534;2023-03-26T00:03:47;10.25;;;2.35;;
65045;SDS011;54657;52.022;5.534;2023-03-26T00:06:17;8.73;;;2.28;;
65045;SDS011;54657;52.022;5.534;2023-03-26T00:08:47;11.93;;;2.60;;
65045;SDS011;54657;52.022;5.534;2023-03-26T00:11:14;10.57;;;2.35;;
65045;SDS011;54657;52.022;5.534;2023-03-26T00:13:41;9.20;;;1.90;;
65045;SDS011;54657;52.022;5.534;2023-03-26T00:16:08;9.88;;;2.08;;
65045;SDS011;54657;52.022;5.534;2023-03-26T00:18:36;7.30;;;1.70;;
65045;SDS011;54657;52.022;5.534;2023-03-26T00:21:04;11.10;;;2.08;;
65045;SDS011;54657;52.022;5.534;2023-03-26T00:23:31;13.23;;;2.42;;
65045;SDS011;54657;52.022;5.534;2023-03-26T00:25:59;12.20;;;2.28;;
65045;SDS011;54657;52.022;5.534;2023-03-26T00:28:26;8.85;;;2.08;;
65045;SDS011;54657;52.022;5.534;2023-03-26T00:30:57;14.13;;;2.22;;
65045;SDS011;54657;52.022;5.534;2023-03-26T00:33:24;16.45;;;2.75;;
65045;SDS011;54657;52.022;5.534;2023-03-26T00:35:50;9.32;;;2.25;;
65045;SDS011;54657;52.022;5.534;2023-03-26T00:38:17;13.25;;;2.95;;
65045;SDS011;54657;52.022;5.534;2023-03-26T00:40:46;17.40;;;3.03;;
65045;SDS011;54657;52.022;5.534;2023-03-26T00:43:14;16.10;;;3.22;;
65045;SDS011;54657;52.022;5.534;2023-03-26T00:45:45;11.90;;;2.95;;
65045;SDS011;54657;52.022;5.534;2023-03-26T00:48:11;14.77;;;3.42;;
65045;SDS011;54657;52.022;5.534;2023-03-26T00:50:37;17.92;;;2.83;;
65045;SDS011;54657;52.022;5.534;2023-03-26T00:53:03;17.35;;;3.60;;
65045;SDS011;54657;52.022;5.534;2023-03-26T00:55:29;18.15;;;3.10;;
65045;SDS011;54657;52.022;5.534;2023-03-26T00:57:55;17.05;;;3.33;;
65045;SDS011;54657;52.022;5.534;2023-03-26T01:00:27;20.95;;;4.25;;
65045;SDS011;54657;52.022;5.534;2023-03-26T01:02:59;15.88;;;3.20;;
65045;SDS011;54657;52.022;5.534;2023-03-26T01:08:01;22.50;;;4.05;;
65045;SDS011;54657;52.022;5.534;2023-03-26T01:10:41;22.27;;;3.67;;
65045;SDS011;54657;52.022;5.534;2023-03-26T01:13:08;19.42;;;3.38;;
65045;SDS011;54657;52.022;5.534;2023-03-26T01:15:34;19.83;;;3.83;;
65045;SDS011;54657;52.022;5.534;2023-03-26T01:18:03;27.58;;;5.30;;
65045;SDS011;54657;52.022;5.534;2023-03-26T01:20:33;17.50;;;4.00;;
65045;SDS011;54657;52.022;5.534;2023-03-26T01:23:03;21.70;;;4.45;;
65045;SDS011;54657;52.022;5.534;2023-03-26T01:25:31;21.95;;;3.67;;
65045;SDS011;54657;52.022;5.534;2023-03-26T01:28:03;20.50;;;3.97;;
65045;SDS011;54657;52.022;5.534;2023-03-26T01:30:41;24.30;;;4.93;;
65045;SDS011;54657;52.022;5.534;2023-03-26T01:36:22;20.27;;;3.55;;
65045;SDS011;54657;52.022;5.534;2023-03-26T01:41:29;19.67;;;4.15;;
65045;SDS011;54657;52.022;5.534;2023-03-26T01:46:52;24.98;;;4.18;;
65045;SDS011;54657;52.022;5.534;2023-03-26T01:49:19;24.60;;;4.35;;
65045;SDS011;54657;52.022;5.534;2023-03-26T01:51:45;23.13;;;4.30;;
65045;SDS011;54657;52.022;5.534;2023-03-26T01:54:18;24.00;;;4.68;;
65045;SDS011;54657;52.022;5.534;2023-03-26T01:59:41;19.52;;;3.95;;
65045;SDS011;54657;52.022;5.534;2023-03-26T02:02:20;27.30;;;5.03;;
65045;SDS011;54657;52.022;5.534;2023-03-26T02:04:56;25.23;;;4.35;;
65045;SDS011;54657;52.022;5.534;2023-03-26T02:07:43;14.55;;;3.38;;
65045;SDS011;54657;52.022;5.534;2023-03-26T02:10:30;20.30;;;4.22;;
65045;SDS011;54657;52.022;5.534;2023-03-26T02:12:59;22.20;;;4.07;;
65045;SDS011;54657;52.022;5.534;2023-03-26T02:15:25;20.88;;;3.83;;
65045;SDS011;54657;52.022;5.534;2023-03-26T02:17:51;27.65;;;4.35;;
65045;SDS011;54657;52.022;5.534;2023-03-26T02:20:18;18.55;;;3.53;;
65045;SDS011;54657;52.022;5.534;2023-03-26T02:22:45;19.05;;;3.38;;
65045;SDS011;54657;52.022;5.534;2023-03-26T02:25:12;19.52;;;3.63;;
65045;SDS011;54657;52.022;5.534;2023-03-26T02:27:40;20.60;;;3.72;;
65045;SDS011;54657;52.022;5.534;2023-03-26T02:30:07;21.67;;;4.32;;
65045;SDS011;54657;52.022;5.534;2023-03-26T02:32:36;21.85;;;4.35;;
65045;SDS011;54657;52.022;5.534;2023-03-26T02:35:03;26.67;;;4.35;;
65045;SDS011;54657;52.022;5.534;2023-03-26T02:37:29;17.92;;;4.05;;
65045;SDS011;54657;52.022;5.534;2023-03-26T02:39:58;23.85;;;4.10;;
65045;SDS011;54657;52.022;5.534;2023-03-26T02:42:23;23.75;;;4.47;;
65045;SDS011;54657;52.022;5.534;2023-03-26T02:44:49;26.90;;;4.60;;
65045;SDS011;54657;52.022;5.534;2023-03-26T02:47:15;20.17;;;4.28;;
65045;SDS011;54657;52.022;5.534;2023-03-26T02:49:40;22.88;;;4.20;;
65045;SDS011;54657;52.022;5.534;2023-03-26T02:52:06;25.13;;;4.38;;
65045;SDS011;54657;52.022;5.534;2023-03-26T02:54:32;18.58;;;3.60;;
65045;SDS011;54657;52.022;5.534;2023-03-26T02:56:59;21.15;;;4.90;;
65045;SDS011;54657;52.022;5.534;2023-03-26T02:59:24;21.27;;;4.60;;
65045;SDS011;54657;52.022;5.534;2023-03-26T03:01:51;20.65;;;4.32;;
65045;SDS011;54657;52.022;5.534;2023-03-26T03:04:16;22.35;;;4.70;;
65045;SDS011;54657;52.022;5.534;2023-03-26T03:06:42;26.67;;;4.55;;
65045;SDS011;54657;52.022;5.534;2023-03-26T03:09:09;24.38;;;4.68;;
65045;SDS011;54657;52.022;5.534;2023-03-26T03:11:35;17.90;;;4.25;;
65045;SDS011;54657;52.022;5.534;2023-03-26T03:14:02;22.88;;;5.15;;
65045;SDS011;54657;52.022;5.534;2023-03-26T03:16:28;29.65;;;5.75;;
65045;SDS011;54657;52.022;5.534;2023-03-26T03:18:54;20.08;;;4.70;;
65045;SDS011;54657;52.022;5.534;2023-03-26T03:21:23;20.50;;;5.47;;
65045;SDS011;54657;52.022;5.534;2023-03-26T03:23:50;19.33;;;5.28;;
65045;SDS011;54657;52.022;5.534;2023-03-26T03:26:18;23.23;;;5.68;;
65045;SDS011;54657;52.022;5.534;2023-03-26T03:28:51;24.33;;;5.80;;
65045;SDS011;54657;52.022;5.534;2023-03-26T03:31:18;27.50;;;6.00;;
65045;SDS011;54657;52.022;5.534;2023-03-26T03:33:43;19.40;;;4.65;;
65045;SDS011;54657;52.022;5.534;2023-03-26T03:36:10;24.50;;;5.53;;
65045;SDS011;54657;52.022;5.534;2023-03-26T03:38:38;22.83;;;5.40;;
65045;SDS011;54657;52.022;5.534;2023-03-26T03:41:05;24.88;;;6.68;;
65045;SDS011;54657;52.022;5.534;2023-03-26T03:43:31;21.30;;;5.28;;
65045;SDS011;54657;52.022;5.534;2023-03-26T03:45:58;24.38;;;6.28;;
65045;SDS011;54657;52.022;5.534;2023-03-26T03:48:24;20.67;;;5.47;;
65045;SDS011;54657;52.022;5.534;2023-03-26T03:50:50;24.05;;;5.30;;
65045;SDS011;54657;52.022;5.534;2023-03-26T03:53:17;26.33;;;5.30;;
65045;SDS011;54657;52.022;5.534;2023-03-26T03:55:43;20.60;;;5.10;;
65045;SDS011;54657;52.022;5.534;2023-03-26T03:58:16;22.17;;;5.35;;
65045;SDS011;54657;52.022;5.534;2023-03-26T04:00:45;25.20;;;5.15;;
65045;SDS011;54657;52.022;5.534;2023-03-26T04:03:15;15.63;;;4.85;;
65045;SDS011;54657;52.022;5.534;2023-03-26T04:05:41;18.70;;;4.85;;
65045;SDS011;54657;52.022;5.534;2023-03-26T04:08:13;26.88;;;5.68;;
65045;SDS011;54657;52.022;5.534;2023-03-26T04:10:39;24.55;;;5.22;;
65045;SDS011;54657;52.022;5.534;2023-03-26T04:13:07;16.42;;;5.05;;
65045;SDS011;54657;52.022;5.534;2023-03-26T04:15:33;22.67;;;5.47;;
65045;SDS011;54657;52.022;5.534;2023-03-26T04:18:00;24.10;;;5.43;;
65045;SDS011;54657;52.022;5.534;2023-03-26T04:20:26;14.57;;;4.60;;
65045;SDS011;54657;52.022;5.534;2023-03-26T04:22:51;22.08;;;5.93;;
65045;SDS011;54657;52.022;5.534;2023-03-26T04:25:17;21.10;;;4.85;;
65045;SDS011;54657;52.022;5.534;2023-03-26T04:27:43;25.95;;;6.30;;
65045;SDS011;54657;52.022;5.534;2023-03-26T04:30:10;28.67;;;6.10;;
65045;SDS011;54657;52.022;5.534;2023-03-26T04:32:40;20.33;;;5.07;;
65045;SDS011;54657;52.022;5.534;2023-03-26T04:35:07;22.88;;;5.05;;
65045;SDS011;54657;52.022;5.534;2023-03-26T04:37:37;24.90;;;5.90;;
65045;SDS011;54657;52.022;5.534;2023-03-26T04:40:05;28.55;;;6.03;;
65045;SDS011;54657;52.022;5.534;2023-03-26T04:42:38;25.05;;;6.07;;
65045;SDS011;54657;52.022;5.534;2023-03-26T04:45:10;26.27;;;4.97;;
65045;SDS011;54657;52.022;5.534;2023-03-26T04:47:37;20.83;;;5.47;;
65045;SDS011;54657;52.022;5.534;2023-03-26T04:50:03;22.88;;;5.07;;
65045;SDS011;54657;52.022;5.534;2023-03-26T04:52:31;22.52;;;5.72;;
65045;SDS011;54657;52.022;5.534;2023-03-26T04:54:57;23.45;;;5.53;;
65045;SDS011;54657;52.022;5.534;2023-03-26T04:57:25;28.58;;;5.75;;
65045;SDS011;54657;52.022;5.534;2023-03-26T04:59:52;19.80;;;5.43;;
65045;SDS011;54657;52.022;5.534;2023-03-26T05:02:17;19.30;;;4.93;;
65045;SDS011;54657;52.022;5.534;2023-03-26T05:04:44;20.27;;;5.75;;
65045;SDS011;54657;52.022;5.534;2023-03-26T05:07:10;23.02;;;5.97;;
65045;SDS011;54657;52.022;5.534;2023-03-26T05:09:40;26.15;;;5.55;;
65045;SDS011;54657;52.022;5.534;2023-03-26T05:12:05;20.77;;;4.97;;
65045;SDS011;54657;52.022;5.534;2023-03-26T05:14:31;29.05;;;5.93;;
65045;SDS011;54657;52.022;5.534;2023-03-26T05:16:57;22.27;;;4.50;;
65045;SDS011;54657;52.022;5.534;2023-03-26T05:19:22;22.23;;;4.50;;
65045;SDS011;54657;52.022;5.534;2023-03-26T05:21:48;18.75;;;3.83;;
65045;SDS011;54657;52.022;5.534;2023-03-26T05:24:13;23.70;;;4.53;;
65045;SDS011;54657;52.022;5.534;2023-03-26T05:26:39;21.77;;;4.25;;
65045;SDS011;54657;52.022;5.534;2023-03-26T05:29:05;22.90;;;4.65;;
65045;SDS011;54657;52.022;5.534;2023-03-26T05:31:30;17.98;;;4.35;;
65045;SDS011;54657;52.022;5.534;2023-03-26T05:33:56;18.38;;;4.18;;
65045;SDS011;54657;52.022;5.534;2023-03-26T05:36:24;15.27;;;3.92;;
65045;SDS011;54657;52.022;5.534;2023-03-26T05:38:52;19.75;;;4.07;;
65045;SDS011;54657;52.022;5.534;2023-03-26T05:41:17;14.60;;;3.53;;
65045;SDS011;54657;52.022;5.534;2023-03-26T05:43:43;12.13;;;3.30;;
65045;SDS011;54657;52.022;5.534;2023-03-26T05:46:10;18.83;;;3.47;;
65045;SDS011;54657;52.022;5.534;2023-03-26T05:48:36;19.25;;;4.43;;
65045;SDS011;54657;52.022;5.534;2023-03-26T05:51:02;15.43;;;3.58;;
65045;SDS011;54657;52.022;5.534;2023-03-26T05:53:28;17.33;;;3.10;;
65045;SDS011;54657;52.022;5.534;2023-03-26T05:55:54;15.88;;;3.70;;
65045;SDS011;54657;52.022;5.534;2023-03-26T05:58:23;16.17;;;3.72;;
65045;SDS011;54657;52.022;5.534;2023-03-26T06:00:55;12.65;;;3.08;;
65045;SDS011;54657;52.022;5.534;2023-03-26T06:03:26;20.52;;;4.28;;
65045;SDS011;54657;52.022;5.534;2023-03-26T06:05:52;19.23;;;3.35;;
65045;SDS011;54657;52.022;5.534;2023-03-26T06:08:18;18.88;;;3.83;;
65045;SDS011;54657;52.022;5.534;2023-03-26T06:10:44;18.00;;;3.08;;
65045;SDS011;54657;52.022;5.534;2023-03-26T06:13:10;17.70;;;3.47;;
65045;SDS011;54657;52.022;5.534;2023-03-26T06:15:37;15.25;;;3.65;;
65045;SDS011;54657;52.022;5.534;2023-03-26T06:18:03;12.32;;;2.80;;
65045;SDS011;54657;52.022;5.534;2023-03-26T06:20:28;11.82;;;2.95;;
65045;SDS011;54657;52.022;5.534;2023-03-26T06:22:54;19.08;;;3.45;;
65045;SDS011;54657;52.022;5.534;2023-03-26T06:25:19;17.13;;;4.03;;
65045;SDS011;54657;52.022;5.534;2023-03-26T06:27:45;20.80;;;3.38;;
65045;SDS011;54657;52.022;5.534;2023-03-26T06:30:11;16.23;;;3.85;;
65045;SDS011;54657;52.022;5.534;2023-03-26T06:32:36;22.02;;;4.40;;
65045;SDS011;54657;52.022;5.534;2023-03-26T06:35:02;17.58;;;3.55;;
65045;SDS011;54657;52.022;5.534;2023-03-26T06:37:28;21.70;;;4.50;;
65045;SDS011;54657;52.022;5.534;2023-03-26T06:39:53;14.65;;;3.80;;
65045;SDS011;54657;52.022;5.534;2023-03-26T06:42:19;14.60;;;3.83;;
65045;SDS011;54657;52.022;5.534;2023-03-26T06:44:45;15.75;;;3.53;;
65045;SDS011;54657;52.022;5.534;2023-03-26T06:47:10;18.30;;;3.67;;
65045;SDS011;54657;52.022;5.534;2023-03-26T06:49:36;24.20;;;4.95;;
65045;SDS011;54657;52.022;5.534;2023-03-26T06:52:02;14.30;;;3.72;;
65045;SDS011;54657;52.022;5.534;2023-03-26T06:54:28;21.38;;;4.32;;
65045;SDS011;54657;52.022;5.534;2023-03-26T06:56:53;17.13;;;4.38;;
65045;SDS011;54657;52.022;5.534;2023-03-26T06:59:20;15.82;;;3.67;;
65045;SDS011;54657;52.022;5.534;2023-03-26T07:01:45;21.25;;;3.92;;
65045;SDS011;54657;52.022;5.534;2023-03-26T07:04:11;15.10;;;3.45;;
65045;SDS011;54657;52.022;5.534;2023-03-26T07:06:42;24.10;;;4.80;;
65045;SDS011;54657;52.022;5.534;2023-03-26T07:09:07;15.82;;;4.20;;
65045;SDS011;54657;52.022;5.534;2023-03-26T07:11:36;18.70;;;3.70;;
65045;SDS011;54657;52.022;5.534;2023-03-26T07:14:02;14.77;;;3.95;;
65045;SDS011;54657;52.022;5.534;2023-03-26T07:16:27;19.65;;;4.70;;
65045;SDS011;54657;52.022;5.534;2023-03-26T07:18:53;13.63;;;3.45;;
65045;SDS011;54657;52.022;5.534;2023-03-26T07:21:19;16.30;;;4.35;;
65045;SDS011;54657;52.022;5.534;2023-03-26T07:23:45;18.15;;;4.00;;
65045;SDS011;54657;52.022;5.534;2023-03-26T07:26:16;17.27;;;3.38;;
65045;SDS011;54657;52.022;5.534;2023-03-26T07:29:01;17.27;;;3.17;;
65045;SDS011;54657;52.022;5.534;2023-03-26T07:36:59;15.63;;;3.67;;
65045;SDS011;54657;52.022;5.534;2023-03-26T07:42:37;15.98;;;3.95;;
65045;SDS011;54657;52.022;5.534;2023-03-26T07:45:29;18.10;;;3.63;;
65045;SDS011;54657;52.022;5.534;2023-03-26T07:48:07;17.00;;;3.78;;
65045;SDS011;54657;52.022;5.534;2023-03-26T07:50:41;22.05;;;3.85;;
65045;SDS011;54657;52.022;5.534;2023-03-26T07:53:08;16.00;;;4.03;;
65045;SDS011;54657;52.022;5.534;2023-03-26T07:55:35;16.58;;;3.35;;
65045;SDS011;54657;52.022;5.534;2023-03-26T08:00:59;17.40;;;3.60;;
65045;SDS011;54657;52.022;5.534;2023-03-26T08:03:41;22.55;;;4.47;;
65045;SDS011;54657;52.022;5.534;2023-03-26T08:06:37;20.48;;;3.47;;
65045;SDS011;54657;52.022;5.534;2023-03-26T08:11:42;24.25;;;4.50;;
65045;SDS011;54657;52.022;5.534;2023-03-26T08:14:32;16.92;;;3.53;;
65045;SDS011;54657;52.022;5.534;2023-03-26T08:17:14;16.20;;;3.80;;
65045;SDS011;54657;52.022;5.534;2023-03-26T08:19:50;17.63;;;3.60;;
65045;SDS011;54657;52.022;5.534;2023-03-26T08:22:25;18.08;;;4.05;;
65045;SDS011;54657;52.022;5.534;2023-03-26T08:30:26;18.33;;;4.95;;
65045;SDS011;54657;52.022;5.534;2023-03-26T08:32:56;18.23;;;4.85;;
65045;SDS011;54657;52.022;5.534;2023-03-26T08:35:24;23.33;;;4.70;;
65045;SDS011;54657;52.022;5.534;2023-03-26T08:37:51;17.48;;;4.35;;
65045;SDS011;54657;52.022;5.534;2023-03-26T08:40:21;19.98;;;4.72;;
65045;SDS011;54657;52.022;5.534;2023-03-26T08:43:27;24.08;;;5.70;;
65045;SDS011;54657;52.022;5.534;2023-03-26T08:48:47;19.02;;;5.35;;
65045;SDS011;54657;52.022;5.534;2023-03-26T08:56:56;14.82;;;4.80;;
65045;SDS011;54657;52.022;5.534;2023-03-26T09:05:25;15.10;;;4.68;;
65045;SDS011;54657;52.022;5.534;2023-03-26T09:08:29;13.73;;;4.60;;
65045;SDS011;54657;52.022;5.534;2023-03-26T09:11:06;14.80;;;4.53;;
65045;SDS011;54657;52.022;5.534;2023-03-26T09:22:42;12.50;;;4.00;;
65045;SDS011;54657;52.022;5.534;2023-03-26T09:42:42;7.93;;;3.55;;
65045;SDS011;54657;52.022;5.534;2023-03-26T09:50:46;6.85;;;2.72;;
65045;SDS011;54657;52.022;5.534;2023-03-26T09:56:09;7.57;;;3.38;;
65045;SDS011;54657;52.022;5.534;2023-03-26T10:04:00;9.60;;;4.07;;
65045;SDS011;54657;52.022;5.534;2023-03-26T10:09:31;8.63;;;3.97;;
65045;SDS011;54657;52.022;5.534;2023-03-26T10:17:32;9.75;;;3.40;;
65045;SDS011;54657;52.022;5.534;2023-03-26T10:34:48;7.72;;;4.63;;
65045;SDS011;54657;52.022;5.534;2023-03-26T10:56:30;5.80;;;3.40;;
65045;SDS011;54657;52.022;5.534;2023-03-26T10:59:06;5.43;;;3.03;;
65045;SDS011;54657;52.022;5.534;2023-03-26T11:15:46;14.05;;;7.00;;
65045;SDS011;54657;52.022;5.534;2023-03-26T11:21:11;12.75;;;6.43;;
65045;SDS011;54657;52.022;5.534;2023-03-26T11:26:54;14.00;;;6.05;;
65045;SDS011;54657;52.022;5.534;2023-03-26T11:29:42;15.88;;;6.65;;
65045;SDS011;54657;52.022;5.534;2023-03-26T11:32:24;14.82;;;6.10;;
65045;SDS011;54657;52.022;5.534;2023-03-26T11:37:52;10.65;;;4.38;;
65045;SDS011;54657;52.022;5.534;2023-03-26T11:40:22;7.15;;;3.92;;
65045;SDS011;54657;52.022;5.534;2023-03-26T11:45:25;12.45;;;5.85;;
65045;SDS011;54657;52.022;5.534;2023-03-26T11:47:56;11.48;;;5.53;;
65045;SDS011;54657;52.022;5.534;2023-03-26T11:50:29;14.27;;;4.75;;
65045;SDS011;54657;52.022;5.534;2023-03-26T11:53:02;13.55;;;4.20;;
65045;SDS011;54657;52.022;5.534;2023-03-26T11:55:38;8.90;;;4.43;;
65045;SDS011;54657;52.022;5.534;2023-03-26T11:58:27;8.68;;;3.95;;
65045;SDS011;54657;52.022;5.534;2023-03-26T12:01:02;10.90;;;4.18;;
65045;SDS011;54657;52.022;5.534;2023-03-26T12:03:29;13.23;;;3.13;;
65045;SDS011;54657;52.022;5.534;2023-03-26T12:05:59;10.73;;;3.28;;
65045;SDS011;54657;52.022;5.534;2023-03-26T12:08:32;13.43;;;3.53;;
65045;SDS011;54657;52.022;5.534;2023-03-26T12:11:06;13.73;;;3.40;;
65045;SDS011;54657;52.022;5.534;2023-03-26T12:13:39;12.43;;;2.90;;
65045;SDS011;54657;52.022;5.534;2023-03-26T12:18:36;7.75;;;2.92;;
65045;SDS011;54657;52.022;5.534;2023-03-26T12:21:05;11.70;;;3.05;;
65045;SDS011;54657;52.022;5.534;2023-03-26T12:23:36;12.52;;;3.22;;
65045;SDS011;54657;52.022;5.534;2023-03-26T12:26:27;14.48;;;3.53;;
65045;SDS011;54657;52.022;5.534;2023-03-26T12:29:10;8.32;;;3.08;;
65045;SDS011;54657;52.022;5.534;2023-03-26T12:31:40;11.23;;;2.95;;
65045;SDS011;54657;52.022;5.534;2023-03-26T12:34:12;9.25;;;2.88;;
65045;SDS011;54657;52.022;5.534;2023-03-26T12:36:40;10.95;;;2.50;;
65045;SDS011;54657;52.022;5.534;2023-03-26T12:39:27;9.13;;;3.30;;
65045;SDS011;54657;52.022;5.534;2023-03-26T12:41:58;11.35;;;2.90;;
65045;SDS011;54657;52.022;5.534;2023-03-26T12:44:44;7.20;;;2.70;;
65045;SDS011;54657;52.022;5.534;2023-03-26T12:47:16;13.68;;;3.65;;
65045;SDS011;54657;52.022;5.534;2023-03-26T12:49:45;8.98;;;3.05;;
65045;SDS011;54657;52.022;5.534;2023-03-26T12:55:20;13.52;;;3.15;;
65045;SDS011;54657;52.022;5.534;2023-03-26T12:57:58;9.10;;;3.03;;
65045;SDS011;54657;52.022;5.534;2023-03-26T13:00:37;7.47;;;2.67;;
65045;SDS011;54657;52.022;5.534;2023-03-26T13:14:09;11.50;;;3.08;;
65045;SDS011;54657;52.022;5.534;2023-03-26T13:19:39;10.32;;;2.88;;
65045;SDS011;54657;52.022;5.534;2023-03-26T13:22:29;12.20;;;3.33;;
65045;SDS011;54657;52.022;5.534;2023-03-26T13:35:46;10.75;;;2.92;;
65045;SDS011;54657;52.022;5.534;2023-03-26T13:47:15;11.93;;;2.70;;
65045;SDS011;54657;52.022;5.534;2023-03-26T13:49:48;10.60;;;3.03;;
65045;SDS011;54657;52.022;5.534;2023-03-26T13:52:26;7.50;;;2.63;;
65045;SDS011;54657;52.022;5.534;2023-03-26T14:05:56;3.95;;;1.50;;
65045;SDS011;54657;52.022;5.534;2023-03-26T14:08:33;11.68;;;2.20;;
65045;SDS011;54657;52.022;5.534;2023-03-26T14:11:07;13.57;;;1.70;;
65045;SDS011;54657;52.022;5.534;2023-03-26T14:14:00;8.07;;;1.70;;
65045;SDS011;54657;52.022;5.534;2023-03-26T14:16:35;5.75;;;1.50;;
65045;SDS011;54657;52.022;5.534;2023-03-26T14:19:17;7.93;;;1.63;;
65045;SDS011;54657;52.022;5.534;2023-03-26T14:22:10;7.28;;;2.42;;
65045;SDS011;54657;52.022;5.534;2023-03-26T14:37:31;8.23;;;1.60;;
65045;SDS011;54657;52.022;5.534;2023-03-26T14:53:59;6.95;;;1.60;;
65045;SDS011;54657;52.022;5.534;2023-03-26T15:14:00;5.65;;;1.70;;
65045;SDS011;54657;52.022;5.534;2023-03-26T15:27:56;9.77;;;1.52;;
65045;SDS011;54657;52.022;5.534;2023-03-26T15:33:31;7.50;;;1.60;;
65045;SDS011;54657;52.022;5.534;2023-03-26T15:41:40;9.38;;;2.08;;
65045;SDS011;54657;52.022;5.534;2023-03-26T15:47:16;8.27;;;1.67;;
65045;SDS011;54657;52.022;5.534;2023-03-26T15:49:54;8.85;;;1.63;;
65045;SDS011;54657;52.022;5.534;2023-03-26T15:52:28;9.02;;;1.88;;
65045;SDS011;54657;52.022;5.534;2023-03-26T15:57:46;4.65;;;2.13;;
65045;SDS011;54657;52.022;5.534;2023-03-26T16:00:24;7.15;;;1.95;;
65045;SDS011;54657;52.022;5.534;2023-03-26T16:08:14;6.90;;;1.70;;
65045;SDS011;54657;52.022;5.534;2023-03-26T16:10:45;5.65;;;1.30;;
65045;SDS011;54657;52.022;5.534;2023-03-26T16:13:42;7.18;;;1.67;;
65045;SDS011;54657;52.022;5.534;2023-03-26T16:34:39;7.05;;;1.63;;
65045;SDS011;54657;52.022;5.534;2023-03-26T16:42:44;6.93;;;1.23;;
65045;SDS011;54657;52.022;5.534;2023-03-26T16:45:51;5.95;;;1.52;;
65045;SDS011;54657;52.022;5.534;2023-03-26T16:48:40;6.68;;;1.67;;
65045;SDS011;54657;52.022;5.534;2023-03-26T16:51:32;4.53;;;1.25;;
65045;SDS011;54657;52.022;5.534;2023-03-26T16:54:31;15.27;;;2.13;;
65045;SDS011;54657;52.022;5.534;2023-03-26T17:03:05;12.27;;;1.77;;
65045;SDS011;54657;52.022;5.534;2023-03-26T17:16:48;5.05;;;1.30;;
65045;SDS011;54657;52.022;5.534;2023-03-26T17:24:45;7.97;;;1.40;;
65045;SDS011;54657;52.022;5.534;2023-03-26T17:38:01;6.25;;;1.95;;
65045;SDS011;54657;52.022;5.534;2023-03-26T17:51:41;7.35;;;1.80;;
65045;SDS011;54657;52.022;5.534;2023-03-26T17:54:18;7.35;;;1.20;;
65045;SDS011;54657;52.022;5.534;2023-03-26T17:56:46;5.05;;;1.17;;
65045;SDS011;54657;52.022;5.534;2023-03-26T17:59:14;3.75;;;1.23;;
65045;SDS011;54657;52.022;5.534;2023-03-26T18:01:48;7.45;;;1.55;;
65045;SDS011;54657;52.022;5.534;2023-03-26T18:04:20;9.05;;;1.65;;
65045;SDS011;54657;52.022;5.534;2023-03-26T18:09:58;6.05;;;1.33;;
65045;SDS011;54657;52.022;5.534;2023-03-26T18:18:07;5.32;;;1.33;;
65045;SDS011;54657;52.022;5.534;2023-03-26T18:20:44;6.82;;;1.65;;
65045;SDS011;54657;52.022;5.534;2023-03-26T18:23:21;6.20;;;1.40;;
65045;SDS011;54657;52.022;5.534;2023-03-26T18:26:07;5.05;;;1.27;;
65045;SDS011;54657;52.022;5.534;2023-03-26T18:28:44;3.85;;;1.08;;
65045;SDS011;54657;52.022;5.534;2023-03-26T18:31:16;6.05;;;1.48;;
65045;SDS011;54657;52.022;5.534;2023-03-26T18:33:53;4.78;;;1.25;;
65045;SDS011;54657;52.022;5.534;2023-03-26T18:36:20;9.32;;;1.20;;
65045;SDS011;54657;52.022;5.534;2023-03-26T18:38:49;6.45;;;1.40;;
65045;SDS011;54657;52.022;5.534;2023-03-26T18:41:28;7.10;;;1.70;;
65045;SDS011;54657;52.022;5.534;2023-03-26T18:46:30;6.10;;;1.10;;
65045;SDS011;54657;52.022;5.534;2023-03-26T18:48:57;4.97;;;1.33;;
65045;SDS011;54657;52.022;5.534;2023-03-26T18:51:25;3.75;;;1.55;;
65045;SDS011;54657;52.022;5.534;2023-03-26T18:53:52;5.18;;;1.08;;
65045;SDS011;54657;52.022;5.534;2023-03-26T18:58:58;8.95;;;1.80;;
65045;SDS011;54657;52.022;5.534;2023-03-26T19:01:26;7.45;;;2.17;;
65045;SDS011;54657;52.022;5.534;2023-03-26T19:03:56;9.52;;;1.58;;
65045;SDS011;54657;52.022;5.534;2023-03-26T19:06:23;8.93;;;1.35;;
65045;SDS011;54657;52.022;5.534;2023-03-26T19:08:50;3.55;;;0.88;;
65045;SDS011;54657;52.022;5.534;2023-03-26T19:11:16;5.47;;;1.40;;
65045;SDS011;54657;52.022;5.534;2023-03-26T19:13:43;4.82;;;1.27;;
65045;SDS011;54657;52.022;5.534;2023-03-26T19:16:19;5.38;;;1.17;;
65045;SDS011;54657;52.022;5.534;2023-03-26T19:18:48;5.53;;;1.40;;
65045;SDS011;54657;52.022;5.534;2023-03-26T19:21:14;9.05;;;1.83;;
65045;SDS011;54657;52.022;5.534;2023-03-26T19:23:42;7.85;;;1.80;;
65045;SDS011;54657;52.022;5.534;2023-03-26T19:26:10;6.60;;;1.45;;
65045;SDS011;54657;52.022;5.534;2023-03-26T19:28:50;7.38;;;1.60;;
65045;SDS011;54657;52.022;5.534;2023-03-26T19:31:19;6.63;;;1.35;;
65045;SDS011;54657;52.022;5.534;2023-03-26T19:33:58;5.78;;;1.50;;
65045;SDS011;54657;52.022;5.534;2023-03-26T19:36:29;8.00;;;1.58;;
65045;SDS011;54657;52.022;5.534;2023-03-26T19:41:25;6.28;;;1.20;;
65045;SDS011;54657;52.022;5.534;2023-03-26T19:43:55;9.68;;;1.60;;
65045;SDS011;54657;52.022;5.534;2023-03-26T19:46:24;7.20;;;1.48;;
65045;SDS011;54657;52.022;5.534;2023-03-26T19:48:52;8.50;;;1.40;;
65045;SDS011;54657;52.022;5.534;2023-03-26T19:53:52;7.05;;;1.20;;
65045;SDS011;54657;52.022;5.534;2023-03-26T19:56:19;5.40;;;1.25;;
65045;SDS011;54657;52.022;5.534;2023-03-26T19:58:46;6.05;;;1.27;;
65045;SDS011;54657;52.022;5.534;2023-03-26T20:01:31;7.63;;;1.98;;
65045;SDS011;54657;52.022;5.534;2023-03-26T20:04:01;4.55;;;1.10;;
65045;SDS011;54657;52.022;5.534;2023-03-26T20:18:38;6.65;;;1.00;;
65045;SDS011;54657;52.022;5.534;2023-03-26T20:21:07;5.90;;;1.23;;
65045;SDS011;54657;52.022;5.534;2023-03-26T20:23:37;6.93;;;1.15;;
65045;SDS011;54657;52.022;5.534;2023-03-26T20:26:30;5.55;;;1.45;;
65045;SDS011;54657;52.022;5.534;2023-03-26T20:28:56;5.07;;;1.45;;
65045;SDS011;54657;52.022;5.534;2023-03-26T20:31:27;6.80;;;1.77;;
65045;SDS011;54657;52.022;5.534;2023-03-26T20:33:53;4.25;;;1.00;;
65045;SDS011;54657;52.022;5.534;2023-03-26T20:36:20;5.25;;;0.93;;
65045;SDS011;54657;52.022;5.534;2023-03-26T20:38:46;4.72;;;1.20;;
65045;SDS011;54657;52.022;5.534;2023-03-26T20:41:12;6.00;;;0.95;;
65045;SDS011;54657;52.022;5.534;2023-03-26T20:43:39;6.18;;;0.85;;
65045;SDS011;54657;52.022;5.534;2023-03-26T20:46:07;11.07;;;1.40;;
65045;SDS011;54657;52.022;5.534;2023-03-26T20:48:42;7.22;;;1.00;;
65045;SDS011;54657;52.022;5.534;2023-03-26T20:51:09;4.53;;;1.02;;
65045;SDS011;54657;52.022;5.534;2023-03-26T20:53:38;3.72;;;1.10;;
65045;SDS011;54657;52.022;5.534;2023-03-26T20:56:08;8.20;;;1.30;;
65045;SDS011;54657;52.022;5.534;2023-03-26T20:58:37;7.75;;;1.33;;
65045;SDS011;54657;52.022;5.534;2023-03-26T21:01:03;6.25;;;1.38;;
65045;SDS011;54657;52.022;5.534;2023-03-26T21:03:30;5.75;;;1.30;;
65045;SDS011;54657;52.022;5.534;2023-03-26T21:05:59;5.55;;;0.95;;
65045;SDS011;54657;52.022;5.534;2023-03-26T21:08:26;7.47;;;1.40;;
65045;SDS011;54657;52.022;5.534;2023-03-26T21:10:58;8.57;;;1.40;;
65045;SDS011;54657;52.022;5.534;2023-03-26T21:16:17;6.07;;;1.50;;
65045;SDS011;54657;52.022;5.534;2023-03-26T21:18:43;5.22;;;1.10;;
65045;SDS011;54657;52.022;5.534;2023-03-26T21:29:39;8.23;;;1.17;;
65045;SDS011;54657;52.022;5.534;2023-03-26T21:32:05;7.15;;;1.15;;